ilmateenistus.ee keskkonnaagentuur.ee
EETN Tallinna lennuväli
FTEO31 EETN 211700
TAF EETN 211700Z 2118/2218 17020KT 9999 SCT020 BKN040 TEMPO 2118/2124
    17020G32KT TEMPO 2123/2215 4000 SHRA BKN008 SCT015CB PROB30 TEMPO
    2123/2203 TSRA BECMG 2200/2202 23020G30KT TEMPO 2202/2215 23030G40KT=

METAR EETN 211650Z 15010KT CAVOK 21/15 Q1003 NOSIG=
Tallinna lennuväli
EEKA Kärdla lennuväli
FCEO32 EETN 211200 AAA
TAF AMD EEKA 211600Z 2113/2119 CNL=

METAR EEKA 211650Z NIL=
Kärdla lennuväli
EEKE Kuressaare lennuväli
FCEO32 EETN 211400
TAF EEKE 211400Z 2115/2121 17015KT 9999 SCT035 TEMPO 2115/2121
    17018G30KT PROB40 TEMPO 2119/2121 4000 SHRA BKN008 SCT015CB=

METAR EEKE 211650Z AUTO 17013KT 9999NDV NSC 19/14 Q1002=
Kuressaare lennuväli
EEPU Pärnu lennuväli
METAR EEPU 211650Z NIL=
Pärnu lennuväli
EETU Tartu lennuväli
METAR EETU 211650Z AUTO 15007KT 9999 NCD 21/14 Q1008=
Tartu lennuväli
EEEI Ämari lennuväli
METAR EEEI 211650Z 15009KT CAVOK 22/15 Q1003 NOSIG=
Ämari lennuväli